Time;durP1;ratioP1;P1;durP2;ratioP2;P2;SDS_P1;SDS_P2;PMS_P1;PMS_P2;Temp;Humidity;BMP_temperature;BMP_pressure;BME280_temperature;BME280_humidity;BME280_pressure;Samples;Min_cycle;Max_cycle;Signal;HPM_P1;HPM_P2
2022/11/29 00:01:18;;;;;;;20.08;12.93;;;8.50;99.90;;;;;;4970125;28;20031;-81
2022/11/29 00:03:43;;;;;;;23.50;14.85;;;8.60;99.90;;;;;;4960269;28;20039;-81
2022/11/29 00:06:14;;;;;;;19.50;12.50;;;8.50;99.90;;;;;;4955683;28;20644;-81
2022/11/29 00:08:40;;;;;;;18.98;13.93;;;8.50;99.90;;;;;;4939131;28;20034;-81
2022/11/29 00:11:07;;;;;;;16.33;12.30;;;8.50;99.90;;;;;;4986132;28;20023;-81
2022/11/29 00:13:33;;;;;;;21.65;15.52;;;8.50;99.90;;;;;;4970090;28;20043;-81
2022/11/29 00:16:05;;;;;;;25.90;17.25;;;8.50;99.90;;;;;;4941437;28;20036;-81
2022/11/29 00:18:31;;;;;;;25.75;15.75;;;8.50;99.90;;;;;;4971566;28;20059;-81
2022/11/29 00:20:57;;;;;;;23.95;14.85;;;8.50;99.90;;;;;;4954757;28;20050;-81
2022/11/29 00:23:22;;;;;;;13.55;9.60;;;8.50;99.90;;;;;;4942559;28;20031;-81
2022/11/29 00:25:48;;;;;;;21.17;13.73;;;8.50;99.90;;;;;;4954978;28;20069;-81
2022/11/29 00:28:13;;;;;;;17.05;12.45;;;8.50;99.90;;;;;;4954432;28;20118;-81
2022/11/29 00:30:39;;;;;;;17.25;11.23;;;8.50;99.90;;;;;;4973506;28;20031;-81
2022/11/29 00:33:04;;;;;;;21.38;14.05;;;8.50;99.90;;;;;;4987183;28;20431;-81
2022/11/29 00:35:30;;;;;;;19.67;12.38;;;8.50;99.90;;;;;;4970944;28;20051;-81
2022/11/29 00:37:56;;;;;;;18.63;11.38;;;8.50;99.90;;;;;;4971953;28;20038;-81
2022/11/29 00:40:21;;;;;;;16.13;12.40;;;8.50;99.90;;;;;;4954355;28;20031;-81
2022/11/29 00:42:47;;;;;;;17.90;12.98;;;8.50;99.90;;;;;;4955464;28;20648;-80
2022/11/29 00:45:12;;;;;;;17.25;11.18;;;8.50;99.90;;;;;;4970389;28;20045;-81
2022/11/29 00:47:38;;;;;;;14.40;9.98;;;8.50;99.90;;;;;;4956549;28;20031;-81
2022/11/29 00:50:05;;;;;;;14.13;10.20;;;8.50;99.90;;;;;;4970654;28;20038;-81
2022/11/29 00:52:30;;;;;;;13.23;9.60;;;8.50;99.90;;;;;;4975312;28;20911;-81
2022/11/29 00:54:56;;;;;;;16.73;11.30;;;8.50;99.90;;;;;;4970350;28;20111;-81
2022/11/29 00:57:21;;;;;;;12.25;8.50;;;8.50;99.90;;;;;;4955531;28;20471;-81
2022/11/29 00:59:47;;;;;;;15.15;10.40;;;8.50;99.90;;;;;;4940332;28;20035;-81
2022/11/29 01:02:12;;;;;;;19.40;12.52;;;8.50;99.90;;;;;;4952826;28;20478;-81
2022/11/29 01:04:38;;;;;;;15.32;11.13;;;8.50;99.90;;;;;;4958561;28;20034;-81
2022/11/29 01:07:03;;;;;;;16.67;11.15;;;8.50;99.90;;;;;;4988067;28;20763;-81
2022/11/29 01:09:29;;;;;;;16.00;10.80;;;8.50;99.90;;;;;;4966359;28;20546;-81
2022/11/29 01:11:54;;;;;;;15.98;9.73;;;8.50;99.90;;;;;;4987388;28;20090;-80
2022/11/29 01:14:20;;;;;;;15.25;10.20;;;8.50;99.90;;;;;;4954953;28;20403;-80
2022/11/29 01:16:45;;;;;;;15.50;10.68;;;8.50;99.90;;;;;;4956896;28;21133;-81
2022/11/29 01:19:11;;;;;;;13.50;9.45;;;8.50;99.90;;;;;;4941814;28;20411;-80
2022/11/29 01:21:36;;;;;;;18.95;11.77;;;8.50;99.90;;;;;;4959431;28;20034;-80
2022/11/29 01:24:02;;;;;;;17.50;11.68;;;8.50;99.90;;;;;;4954418;28;20034;-81
2022/11/29 01:26:28;;;;;;;16.95;11.20;;;8.50;99.90;;;;;;4971408;28;20125;-81
2022/11/29 01:28:54;;;;;;;13.85;9.20;;;8.50;99.90;;;;;;4974425;28;20554;-81
2022/11/29 01:31:22;;;;;;;20.50;13.82;;;8.50;99.90;;;;;;4953607;28;20031;-81
2022/11/29 01:33:48;;;;;;;26.00;15.98;;;8.50;99.90;;;;;;4957296;28;20031;-81
2022/11/29 01:36:15;;;;;;;23.58;14.90;;;8.50;99.90;;;;;;4955427;28;20057;-81
2022/11/29 01:38:41;;;;;;;19.67;12.70;;;8.50;99.90;;;;;;4972199;28;20038;-81
2022/11/29 01:41:07;;;;;;;14.68;9.05;;;8.50;99.90;;;;;;4986101;28;20442;-81
2022/11/29 01:43:33;;;;;;;22.90;13.77;;;8.50;99.90;;;;;;4971349;28;20430;-81
2022/11/29 01:45:59;;;;;;;27.55;17.30;;;8.50;99.90;;;;;;4968179;28;20038;-81
2022/11/29 01:48:29;;;;;;;28.65;16.70;;;8.50;99.90;;;;;;4957028;28;20394;-81
2022/11/29 01:50:56;;;;;;;31.50;17.50;;;8.50;99.90;;;;;;4951415;28;20511;-81
2022/11/29 01:53:22;;;;;;;39.55;20.95;;;8.50;99.90;;;;;;4957362;28;20129;-80
2022/11/29 01:55:51;;;;;;;39.47;19.00;;;8.60;99.90;;;;;;4939850;28;20125;-81
2022/11/29 01:58:16;;;;;;;38.05;19.73;;;8.60;99.90;;;;;;4953514;28;20034;-81
2022/11/29 02:00:42;;;;;;;49.10;20.92;;;8.50;99.90;;;;;;4984550;28;20035;-81
2022/11/29 02:03:12;;;;;;;44.15;21.67;;;8.50;99.90;;;;;;4955582;28;20027;-81
2022/11/29 02:05:46;;;;;;;41.13;19.58;;;8.50;99.90;;;;;;4967807;28;20042;-81
2022/11/29 02:08:13;;;;;;;42.90;20.67;;;8.50;99.90;;;;;;4950705;28;20182;-81
2022/11/29 02:11:16;;;;;;;99.15;25.73;;;8.50;99.90;;;;;;4935770;28;20036;-81
2022/11/29 02:14:04;;;;;;;49.45;22.40;;;8.50;99.90;;;;;;4966698;28;20019;-81
2022/11/29 02:16:38;;;;;;;60.70;24.13;;;8.60;99.90;;;;;;4949103;28;20126;-81
2022/11/29 02:19:31;;;;;;;63.15;22.15;;;8.60;99.90;;;;;;4970939;28;20027;-81
2022/11/29 02:22:06;;;;;;;86.55;28.38;;;8.60;99.90;;;;;;4982051;28;20023;-81
2022/11/29 02:24:38;;;;;;;79.77;27.77;;;8.60;99.90;;;;;;4936396;28;20051;-81
2022/11/29 02:27:05;;;;;;;74.65;26.48;;;8.60;99.90;;;;;;4981880;28;20569;-81
2022/11/29 02:29:37;;;;;;;55.05;20.77;;;8.60;99.90;;;;;;4974260;28;20792;-81
2022/11/29 02:32:40;;;;;;;100.32;28.35;;;8.60;99.90;;;;;;4965636;28;20031;-81
2022/11/29 02:35:42;;;;;;;100.60;28.70;;;8.60;99.90;;;;;;4964932;28;20046;-81
2022/11/29 02:38:26;;;;;;;104.10;29.48;;;8.60;99.90;;;;;;4966613;28;20038;-81
2022/11/29 02:41:13;;;;;;;52.45;19.33;;;8.70;99.90;;;;;;4969553;28;20103;-81
2022/11/29 02:43:56;;;;;;;122.68;34.13;;;8.60;99.90;;;;;;4966108;28;20034;-81
2022/11/29 02:46:58;;;;;;;107.88;28.77;;;8.60;99.90;;;;;;4968144;28;20130;-81
2022/11/29 02:49:26;;;;;;;107.82;29.80;;;8.70;99.90;;;;;;4966900;28;20517;-81
2022/11/29 02:52:05;;;;;;;127.25;30.77;;;8.70;99.90;;;;;;4968473;28;20057;-81
2022/11/29 02:55:04;;;;;;;122.03;33.20;;;8.70;99.90;;;;;;4971951;28;20117;-81
2022/11/29 02:57:37;;;;;;;135.52;35.38;;;8.70;99.90;;;;;;4945651;28;20054;-81
2022/11/29 03:00:05;;;;;;;144.95;34.90;;;8.60;99.90;;;;;;4967772;28;20376;-81
2022/11/29 03:02:48;;;;;;;149.25;34.30;;;8.70;99.90;;;;;;4967218;28;20043;-81
2022/11/29 03:05:32;;;;;;;156.13;33.58;;;8.70;99.90;;;;;;4945897;28;20055;-81
2022/11/29 03:08:12;;;;;;;139.57;32.05;;;8.70;99.90;;;;;;4966376;28;20035;-81
2022/11/29 03:11:08;;;;;;;144.85;32.90;;;8.70;99.90;;;;;;4969812;28;20105;-81
2022/11/29 03:13:55;;;;;;;144.00;33.22;;;8.70;99.90;;;;;;4963811;28;20399;-81
2022/11/29 03:16:42;;;;;;;141.43;31.50;;;8.70;99.90;;;;;;4972046;28;20448;-81
2022/11/29 03:19:38;;;;;;;140.98;31.63;;;8.70;99.90;;;;;;4965346;28;20439;-81
2022/11/29 03:22:26;;;;;;;132.35;30.13;;;8.70;99.90;;;;;;4968239;28;20055;-81
2022/11/29 03:24:52;;;;;;;131.20;29.88;;;8.70;99.90;;;;;;4964137;28;20506;-81
2022/11/29 03:27:37;;;;;;;138.13;30.65;;;8.70;99.90;;;;;;4969351;28;20031;-81
2022/11/29 03:30:05;;;;;;;121.95;31.20;;;8.70;99.90;;;;;;4938521;28;20066;-81
2022/11/29 03:32:37;;;;;;;117.30;26.40;;;8.70;99.90;;;;;;4985862;28;20041;-81
2022/11/29 03:35:06;;;;;;;104.28;25.77;;;8.70;99.90;;;;;;4975031;28;20030;-81
2022/11/29 03:37:44;;;;;;;105.10;27.05;;;8.70;99.90;;;;;;4975956;28;20069;-81
2022/11/29 03:40:41;;;;;;;98.22;26.30;;;8.70;99.90;;;;;;4971068;28;20553;-81
2022/11/29 03:43:14;;;;;;;87.82;26.27;;;8.70;99.90;;;;;;4971597;28;20519;-81
2022/11/29 03:45:52;;;;;;;79.10;23.95;;;8.70;99.90;;;;;;4955345;28;20440;-81
2022/11/29 03:48:23;;;;;;;81.03;25.23;;;8.70;99.90;;;;;;4973416;28;20026;-81
2022/11/29 03:50:55;;;;;;;94.45;26.83;;;8.70;99.90;;;;;;4972012;28;20549;-81
2022/11/29 03:53:29;;;;;;;103.25;26.02;;;8.60;99.90;;;;;;4971144;28;20024;-81
2022/11/29 03:56:31;;;;;;;113.15;30.33;;;8.60;99.90;;;;;;4947746;28;20031;-81
2022/11/29 03:59:06;;;;;;;118.65;27.95;;;8.60;99.90;;;;;;4945161;28;20030;-81
2022/11/29 04:01:53;;;;;;;106.70;25.80;;;8.60;99.90;;;;;;4970948;28;20111;-81
2022/11/29 04:04:21;;;;;;;;;;;8.60;99.90;;;;;;5046258;23;20043;-81
2022/11/29 04:07:01;;;;;;;104.70;23.42;;;8.60;99.90;;;;;;4957755;28;19922;-82
2022/11/29 04:10:03;;;;;;;110.60;24.90;;;8.50;99.90;;;;;;4934084;29;20066;-81
2022/11/29 04:12:47;;;;;;;98.68;23.98;;;8.50;99.90;;;;;;4962900;28;20031;-80
2022/11/29 04:15:50;;;;;;;86.75;21.75;;;8.50;99.90;;;;;;4962714;28;20047;-81
2022/11/29 04:18:35;;;;;;;101.05;22.92;;;8.50;99.90;;;;;;4950108;28;20027;-81
2022/11/29 04:21:29;;;;;;;93.22;21.63;;;8.50;99.90;;;;;;4947285;28;20101;-81
2022/11/29 04:24:02;;;;;;;83.13;21.92;;;8.50;99.90;;;;;;4944628;28;20491;-82
2022/11/29 04:27:06;;;;;;;95.00;23.08;;;8.50;99.90;;;;;;4934818;28;20523;-81
2022/11/29 04:29:50;;;;;;;99.85;24.35;;;8.50;99.90;;;;;;4959973;28;20099;-81
2022/11/29 04:32:40;;;;;;;104.35;24.10;;;8.50;99.90;;;;;;4970072;28;20039;-81
2022/11/29 04:35:24;;;;;;;101.93;24.92;;;8.40;99.90;;;;;;4948608;28;20058;-81
2022/11/29 04:38:28;;;;;;;114.75;27.98;;;8.40;99.90;;;;;;4955857;28;20027;-81
2022/11/29 04:41:12;;;;;;;107.50;26.45;;;8.40;99.90;;;;;;4948794;28;20085;-80
2022/11/29 04:43:41;;;;;;;102.32;26.25;;;8.40;99.90;;;;;;4949444;28;20075;-79
2022/11/29 04:46:19;;;;;;;113.88;25.95;;;8.40;99.90;;;;;;4968369;28;20039;-80
2022/11/29 04:49:13;;;;;;;102.93;25.15;;;8.40;99.90;;;;;;4933741;28;20496;-80
2022/11/29 04:52:07;;;;;;;110.47;25.60;;;8.40;99.90;;;;;;4954235;28;20035;-80
2022/11/29 04:54:41;;;;;;;101.70;26.75;;;8.40;99.90;;;;;;4951068;28;20525;-80
2022/11/29 04:57:41;;;;;;;108.72;26.85;;;8.40;99.90;;;;;;4920393;28;20407;-80
2022/11/29 05:00:14;;;;;;;98.95;24.65;;;8.40;99.90;;;;;;4917680;29;20024;-81
2022/11/29 05:03:00;;;;;;;101.45;26.27;;;8.40;99.90;;;;;;4923362;28;20036;-81
2022/11/29 05:05:50;;;;;;;100.82;26.85;;;8.40;99.90;;;;;;4909186;29;20515;-80
2022/11/29 05:08:29;;;;;;;100.57;24.35;;;8.40;99.90;;;;;;4929025;29;20059;-81
2022/11/29 05:11:10;;;;;;;92.82;20.80;;;8.40;99.90;;;;;;4918190;28;20034;-81
2022/11/29 05:13:44;;;;;;;93.53;23.25;;;8.40;99.90;;;;;;4933016;29;20123;-81
2022/11/29 05:16:34;;;;;;;92.28;22.98;;;8.30;99.90;;;;;;4931740;29;20032;-81
2022/11/29 05:19:03;;;;;;;90.00;22.75;;;8.40;99.90;;;;;;4929403;28;20101;-81
2022/11/29 05:21:47;;;;;;;96.65;22.17;;;8.40;99.90;;;;;;4933773;28;20484;-81
2022/11/29 05:24:31;;;;;;;96.75;21.90;;;8.30;99.90;;;;;;4945754;28;20032;-81
2022/11/29 05:27:05;;;;;;;84.72;21.52;;;8.40;99.90;;;;;;4934865;29;20048;-81
2022/11/29 05:29:54;;;;;;;66.28;19.83;;;8.30;99.90;;;;;;4935570;29;20499;-81
2022/11/29 05:32:49;;;;;;;91.47;22.30;;;8.30;99.90;;;;;;4932086;29;20036;-81
2022/11/29 05:35:41;;;;;;;68.88;19.92;;;8.30;99.90;;;;;;4933569;29;20050;-81
2022/11/29 05:38:21;;;;;;;49.28;12.82;;;8.30;99.90;;;;;;4915603;29;20036;-81
2022/11/29 05:40:53;;;;;;;50.38;13.90;;;8.30;99.90;;;;;;4948491;28;20042;-80
2022/11/29 05:43:52;;;;;;;65.45;18.42;;;8.30;99.90;;;;;;4947608;28;21002;-81
2022/11/29 05:46:23;;;;;;;47.40;13.55;;;8.30;99.90;;;;;;4930999;29;20436;-81
2022/11/29 05:49:09;;;;;;;71.20;20.55;;;8.30;99.90;;;;;;4918868;29;20035;-81
2022/11/29 05:51:48;;;;;;;83.63;22.92;;;8.20;99.90;;;;;;4932950;29;20558;-81
2022/11/29 05:54:35;;;;;;;70.85;18.05;;;8.20;99.90;;;;;;4951019;28;20039;-80
2022/11/29 05:57:12;;;;;;;50.20;15.23;;;8.20;99.90;;;;;;4905759;28;20031;-80
2022/11/29 05:59:38;;;;;;;76.00;20.70;;;8.20;99.90;;;;;;4949546;28;20032;-81
2022/11/29 06:02:29;;;;;;;36.05;11.98;;;8.10;99.90;;;;;;4936805;29;20392;-80
2022/11/29 06:05:17;;;;;;;76.75;18.92;;;8.10;99.90;;;;;;4932081;29;20119;-81
2022/11/29 06:07:50;;;;;;;44.97;13.63;;;8.20;99.90;;;;;;4931804;29;20125;-81
2022/11/29 06:10:23;;;;;;;53.90;16.08;;;8.10;99.90;;;;;;4931689;29;20083;-80
2022/11/29 06:13:03;;;;;;;69.05;20.50;;;8.10;99.90;;;;;;4917944;28;20107;-81
2022/11/29 06:15:47;;;;;;;60.28;19.58;;;8.10;99.90;;;;;;4942630;28;20040;-80
2022/11/29 06:18:25;;;;;;;70.50;21.52;;;8.10;99.90;;;;;;4929130;29;20054;-81
2022/11/29 06:20:54;;;;;;;69.82;21.27;;;8.10;99.90;;;;;;4930417;29;20507;-81
2022/11/29 06:23:27;;;;;;;60.95;18.52;;;8.10;99.90;;;;;;4950737;28;20055;-80
2022/11/29 06:26:18;;;;;;;65.07;20.73;;;8.10;99.90;;;;;;4935584;28;20452;-81
2022/11/29 06:29:19;;;;;;;86.97;21.33;;;8.10;99.90;;;;;;4948180;28;20031;-80
2022/11/29 06:31:46;;;;;;;75.43;19.85;;;8.10;99.90;;;;;;4930074;29;20111;-80
2022/11/29 06:34:41;;;;;;;74.40;20.08;;;8.10;99.90;;;;;;4929193;29;20028;-80
2022/11/29 06:37:41;;;;;;;67.13;22.98;;;8.10;99.90;;;;;;4916099;29;20035;-80
2022/11/29 06:40:11;;;;;;;67.40;23.10;;;8.10;99.90;;;;;;4932432;28;20083;-80
2022/11/29 06:42:37;;;;;;;86.90;26.15;;;8.10;99.90;;;;;;4896544;29;20066;-80
2022/11/29 06:45:03;;;;;;;45.10;15.95;;;8.10;99.90;;;;;;4931503;28;20063;-80
2022/11/29 06:47:38;;;;;;;54.38;18.88;;;8.10;99.90;;;;;;4915900;28;21132;-80
2022/11/29 06:50:40;;;;;;;63.97;19.30;;;8.10;99.90;;;;;;4930675;28;20604;-80
2022/11/29 06:53:26;;;;;;;87.47;24.23;;;8.10;99.90;;;;;;4934770;28;20035;-80
2022/11/29 06:56:02;;;;;;;35.78;13.32;;;8.10;99.90;;;;;;4870915;29;20027;-80
2022/11/29 06:59:02;;;;;;;57.05;19.52;;;8.10;99.90;;;;;;4944407;28;20047;-81
2022/11/29 07:01:38;;;;;;;73.47;24.10;;;8.00;99.90;;;;;;4923307;29;20131;-80
2022/11/29 07:04:35;;;;;;;58.15;20.00;;;8.00;99.90;;;;;;4906745;28;20048;-80
2022/11/29 07:07:00;;;;;;;77.95;23.90;;;8.10;99.90;;;;;;4912791;29;20059;-80
2022/11/29 07:09:31;;;;;;;69.47;21.77;;;8.00;99.90;;;;;;4929525;29;20108;-80
2022/11/29 07:11:56;;;;;;;67.07;21.73;;;8.00;99.90;;;;;;4917916;29;20079;-80
2022/11/29 07:14:22;;;;;;;82.20;24.95;;;8.00;99.90;;;;;;4911050;29;20500;-80
2022/11/29 07:17:00;;;;;;;62.10;22.08;;;8.00;99.90;;;;;;4914059;29;20035;-81
2022/11/29 07:19:44;;;;;;;69.55;22.88;;;8.00;99.90;;;;;;4928731;29;20043;-81
2022/11/29 07:23:03;;;;;;;69.00;21.85;;;8.10;99.90;;;;;;4911568;29;20055;-81
2022/11/29 07:25:45;;;;;;;69.97;21.40;;;8.10;99.90;;;;;;4892395;29;20103;-80
2022/11/29 07:28:29;;;;;;;76.75;22.45;;;8.10;99.90;;;;;;4894465;29;20106;-81
2022/11/29 07:31:32;;;;;;;29.85;11.20;;;8.10;99.90;;;;;;4919831;28;20031;-80
2022/11/29 07:34:20;;;;;;;41.88;14.55;;;8.10;99.90;;;;;;4944527;28;20032;-81
2022/11/29 07:37:05;;;;;;;54.75;21.05;;;8.10;99.90;;;;;;4924518;29;20040;-82
2022/11/29 07:40:12;;;;;;;71.72;22.25;;;8.10;99.90;;;;;;4943698;28;20036;-82
2022/11/29 07:42:56;;;;;;;77.10;25.77;;;8.10;99.90;;;;;;4914627;28;20036;-82
2022/11/29 07:45:32;;;;;;;51.30;14.88;;;8.00;99.90;;;;;;4928962;29;20070;-82
2022/11/29 07:47:58;;;;;;;76.28;21.52;;;8.10;99.90;;;;;;4946174;28;20705;-82
2022/11/29 07:50:26;;;;;;;74.40;21.50;;;8.10;99.90;;;;;;4913195;29;20090;-82
2022/11/29 07:52:51;;;;;;;79.53;22.45;;;8.10;99.90;;;;;;4918097;28;20563;-85
2022/11/29 07:55:18;;;;;;;75.63;22.02;;;8.10;99.90;;;;;;4916323;29;20032;-82
2022/11/29 07:57:44;;;;;;;72.95;21.95;;;8.10;99.90;;;;;;4915481;29;20106;-82
2022/11/29 08:00:10;;;;;;;82.15;22.00;;;8.10;99.90;;;;;;4917219;28;20497;-82
2022/11/29 08:02:36;;;;;;;82.13;24.92;;;8.10;99.90;;;;;;4917629;29;20035;-83
2022/11/29 08:05:02;;;;;;;75.10;24.65;;;8.10;99.90;;;;;;4949278;28;20046;-82
2022/11/29 08:07:28;;;;;;;80.05;25.23;;;8.10;99.90;;;;;;4915179;29;20040;-83
2022/11/29 08:09:53;;;;;;;98.47;25.63;;;8.00;99.90;;;;;;4935308;28;20042;-82
2022/11/29 08:12:19;;;;;;;92.55;25.63;;;8.00;99.90;;;;;;4903007;29;20110;-82
2022/11/29 08:14:44;;;;;;;85.85;25.70;;;8.00;99.90;;;;;;4902712;29;20036;-83
2022/11/29 08:17:10;;;;;;;81.60;25.33;;;8.00;99.90;;;;;;4904792;29;20103;-82
2022/11/29 08:19:36;;;;;;;74.68;25.10;;;8.10;99.90;;;;;;4911967;29;20047;-82
2022/11/29 08:22:01;;;;;;;66.85;22.88;;;8.10;99.90;;;;;;4949914;28;20046;-83
2022/11/29 08:24:27;;;;;;;98.47;28.70;;;8.10;99.90;;;;;;4916599;29;20455;-82
2022/11/29 08:26:58;;;;;;;82.68;26.38;;;8.10;99.90;;;;;;4934174;29;20036;-82
2022/11/29 08:29:24;;;;;;;42.05;16.30;;;8.10;99.90;;;;;;4917776;29;20478;-81
2022/11/29 08:31:52;;;;;;;79.03;25.50;;;8.10;99.90;;;;;;4919047;29;20119;-82
2022/11/29 08:34:18;;;;;;;75.57;24.67;;;8.10;99.90;;;;;;4934485;29;20492;-82
2022/11/29 08:36:45;;;;;;;89.47;27.38;;;8.20;99.90;;;;;;4915306;29;20031;-82
2022/11/29 08:39:11;;;;;;;32.38;13.18;;;8.20;99.90;;;;;;4904507;28;20035;-83
2022/11/29 08:41:36;;;;;;;61.97;20.15;;;8.20;99.90;;;;;;4899217;29;20120;-82
2022/11/29 08:44:04;;;;;;;72.40;22.52;;;8.20;99.90;;;;;;4920633;28;20028;-82
2022/11/29 08:49:14;;;;;;;82.47;27.42;;;8.30;99.90;;;;;;4920696;29;20054;-81
2022/11/29 08:51:40;;;;;;;48.28;17.60;;;8.30;99.90;;;;;;4915378;29;20432;-82
2022/11/29 08:54:06;;;;;;;53.38;18.98;;;8.30;99.90;;;;;;4944490;28;20087;-81
2022/11/29 08:56:31;;;;;;;50.70;18.00;;;8.30;99.90;;;;;;4903994;29;20091;-82
2022/11/29 08:58:57;;;;;;;54.70;18.17;;;8.40;99.90;;;;;;4923517;29;20051;-82
2022/11/29 09:01:22;;;;;;;90.47;27.73;;;8.40;99.90;;;;;;4921235;29;20107;-83
2022/11/29 09:04:05;;;;;;;76.40;25.15;;;8.40;99.90;;;;;;4920572;28;20035;-82
2022/11/29 09:06:36;;;;;;;62.63;21.13;;;8.50;99.90;;;;;;4921865;29;20040;-82
2022/11/29 09:09:01;;;;;;;57.50;21.80;;;8.50;99.90;;;;;;4917826;29;20052;-82
2022/11/29 09:11:27;;;;;;;84.85;26.83;;;8.50;99.90;;;;;;4915955;29;20082;-82
2022/11/29 09:13:55;;;;;;;66.65;22.48;;;8.50;99.90;;;;;;4933021;29;20043;-82
2022/11/29 09:16:22;;;;;;;72.22;25.02;;;8.60;99.90;;;;;;4914761;29;20051;-82
2022/11/29 09:18:54;;;;;;;54.33;20.45;;;8.60;99.90;;;;;;4936046;29;20062;-82
2022/11/29 09:21:21;;;;;;;68.30;22.88;;;8.70;99.90;;;;;;4918507;29;20038;-82
2022/11/29 09:23:46;;;;;;;62.70;22.05;;;8.70;99.90;;;;;;4918526;29;20044;-83
2022/11/29 09:26:18;;;;;;;60.90;21.70;;;8.70;99.90;;;;;;4920147;29;20058;-81
2022/11/29 09:28:44;;;;;;;49.40;17.17;;;8.80;99.90;;;;;;4920460;29;20552;-82
2022/11/29 09:31:14;;;;;;;74.25;23.83;;;8.80;99.90;;;;;;4920454;29;20028;-82
2022/11/29 09:33:41;;;;;;;90.05;27.13;;;8.80;99.90;;;;;;4934419;28;20036;-82
2022/11/29 09:36:08;;;;;;;60.40;21.35;;;8.90;99.90;;;;;;4913002;29;20027;-83
2022/11/29 09:38:34;;;;;;;87.80;28.73;;;8.90;99.90;;;;;;4898723;29;20522;-82
2022/11/29 09:41:36;;;;;;;78.63;27.85;;;9.00;99.90;;;;;;4951271;28;20035;-82
2022/11/29 09:44:14;;;;;;;83.05;27.70;;;9.00;99.90;;;;;;4948691;28;20034;-82
2022/11/29 09:46:53;;;;;;;81.28;27.45;;;9.00;99.90;;;;;;4929612;28;20497;-83
2022/11/29 09:49:28;;;;;;;75.70;26.17;;;9.10;99.90;;;;;;4950141;28;20492;-82
2022/11/29 09:52:12;;;;;;;61.47;23.17;;;9.10;99.90;;;;;;4946781;28;20114;-82
2022/11/29 09:55:12;;;;;;;62.40;23.20;;;9.20;99.90;;;;;;4930983;29;20318;-82
2022/11/29 09:57:38;;;;;;;43.80;15.02;;;9.20;99.90;;;;;;4943466;28;20496;-82
2022/11/29 10:00:05;;;;;;;65.38;21.10;;;9.30;99.90;;;;;;4916908;29;20059;-82
2022/11/29 10:02:46;;;;;;;50.05;18.73;;;9.30;99.90;;;;;;4916352;29;20560;-82
2022/11/29 10:05:19;;;;;;;47.13;17.67;;;9.30;99.90;;;;;;4913287;28;20046;-82
2022/11/29 10:07:50;;;;;;;59.92;19.23;;;9.40;99.90;;;;;;4908037;29;20059;-82
2022/11/29 10:10:42;;;;;;;55.25;18.20;;;9.40;99.90;;;;;;4913752;29;20495;-82
2022/11/29 10:13:43;;;;;;;56.33;18.67;;;9.40;99.90;;;;;;4916749;29;20098;-82
2022/11/29 10:16:29;;;;;;;57.00;18.63;;;9.50;99.90;;;;;;4890016;29;20027;-82
2022/11/29 10:19:01;;;;;;;57.63;19.42;;;9.60;99.90;;;;;;4928827;29;20044;-81
2022/11/29 10:21:29;;;;;;;54.78;17.85;;;9.70;99.90;;;;;;4933214;29;20077;-82
2022/11/29 10:24:00;;;;;;;51.20;17.67;;;9.70;99.90;;;;;;4899635;28;20040;-82
2022/11/29 10:26:26;;;;;;;59.58;18.02;;;9.70;99.90;;;;;;4916685;29;20044;-82
2022/11/29 10:28:54;;;;;;;59.72;19.05;;;9.80;99.90;;;;;;4915806;28;20160;-82
2022/11/29 10:31:26;;;;;;;69.65;19.70;;;9.70;99.90;;;;;;4914396;29;20079;-81
2022/11/29 10:33:53;;;;;;;42.67;17.70;;;9.80;99.90;;;;;;4930476;29;20154;-82
2022/11/29 10:36:32;;;;;;;60.67;17.42;;;9.90;99.90;;;;;;4928902;29;20054;-82
2022/11/29 10:39:03;;;;;;;70.10;21.20;;;9.90;99.90;;;;;;4943726;28;20135;-82
2022/11/29 10:41:28;;;;;;;55.40;18.45;;;9.90;99.90;;;;;;4911428;29;20504;-82
2022/11/29 10:43:56;;;;;;;62.97;20.25;;;9.90;99.90;;;;;;4895972;29;20135;-82
2022/11/29 10:46:32;;;;;;;81.20;23.65;;;9.90;99.90;;;;;;4926390;29;20524;-82
2022/11/29 10:48:58;;;;;;;70.30;22.20;;;9.90;99.90;;;;;;4898310;28;20528;-82
2022/11/29 10:51:24;;;;;;;68.32;21.75;;;9.90;99.90;;;;;;4927703;29;20050;-82
2022/11/29 10:53:51;;;;;;;70.68;23.05;;;9.90;99.90;;;;;;4907787;29;20040;-81
2022/11/29 10:56:28;;;;;;;86.85;27.92;;;9.90;99.90;;;;;;4933702;29;20027;-81
2022/11/29 10:59:02;;;;;;;58.35;22.20;;;9.90;99.90;;;;;;4934436;28;20504;-81
2022/11/29 11:01:28;;;;;;;79.38;27.02;;;9.90;99.90;;;;;;4918909;28;20115;-81
2022/11/29 11:03:54;;;;;;;118.65;35.10;;;9.90;99.90;;;;;;4911370;28;20059;-81
2022/11/29 11:06:27;;;;;;;104.00;33.88;;;9.90;99.90;;;;;;4917260;29;20056;-81
2022/11/29 11:09:13;;;;;;;108.07;34.80;;;9.90;99.90;;;;;;4915345;29;20123;-81
2022/11/29 11:11:55;;;;;;;96.97;32.57;;;9.90;99.90;;;;;;4913556;29;20040;-82
2022/11/29 11:14:25;;;;;;;85.97;29.77;;;9.90;99.90;;;;;;4916291;29;20271;-81
2022/11/29 11:16:51;;;;;;;80.10;27.08;;;10.00;99.90;;;;;;4929910;28;20028;-81
2022/11/29 11:19:29;;;;;;;96.43;31.90;;;10.00;99.90;;;;;;4915612;29;20396;-81
2022/11/29 11:22:01;;;;;;;91.07;29.05;;;10.00;99.90;;;;;;4931930;28;20038;-81
2022/11/29 11:24:46;;;;;;;84.57;28.80;;;10.00;99.90;;;;;;4920039;28;20540;-81
2022/11/29 11:27:11;;;;;;;105.78;32.15;;;10.00;99.90;;;;;;4899792;29;20040;-81
2022/11/29 11:29:39;;;;;;;85.32;30.27;;;10.00;99.90;;;;;;4903585;29;20407;-81
2022/11/29 11:32:13;;;;;;;116.20;34.58;;;10.00;99.90;;;;;;4935368;29;20036;-81
2022/11/29 11:34:39;;;;;;;100.45;34.45;;;10.00;99.90;;;;;;4912731;29;20035;-81
2022/11/29 11:37:13;;;;;;;75.53;25.02;;;10.00;99.90;;;;;;4911986;29;20122;-81
2022/11/29 11:39:39;;;;;;;105.47;33.65;;;10.00;99.90;;;;;;4945160;28;20186;-81
2022/11/29 11:44:51;;;;;;;116.35;33.83;;;10.00;99.90;;;;;;4918431;29;20058;-81
2022/11/29 11:47:26;;;;;;;97.53;34.20;;;10.00;99.90;;;;;;4929840;29;20391;-81
2022/11/29 11:50:03;;;;;;;121.90;34.93;;;9.90;99.90;;;;;;4934462;29;20047;-81
2022/11/29 11:52:45;;;;;;;132.38;38.97;;;9.90;99.90;;;;;;4944450;28;20115;-81
2022/11/29 11:55:32;;;;;;;80.65;23.27;;;9.90;99.90;;;;;;4946361;28;20027;-81
2022/11/29 11:58:13;;;;;;;103.55;32.00;;;9.90;99.90;;;;;;4934307;29;20395;-81
2022/11/29 12:00:45;;;;;;;128.20;39.13;;;9.80;99.90;;;;;;4950198;28;20035;-81
2022/11/29 12:03:19;;;;;;;119.82;35.58;;;9.80;99.90;;;;;;4929908;29;20028;-82
2022/11/29 12:05:48;;;;;;;109.78;34.33;;;9.80;99.90;;;;;;4935650;29;20044;-82
2022/11/29 12:08:14;;;;;;;98.72;30.92;;;9.80;99.90;;;;;;4921337;29;20072;-82
2022/11/29 12:10:39;;;;;;;125.78;37.38;;;9.80;99.90;;;;;;4935186;29;20441;-81
2022/11/29 12:13:05;;;;;;;130.88;38.92;;;9.70;99.90;;;;;;4932889;29;20031;-81
2022/11/29 12:15:36;;;;;;;140.35;41.28;;;9.80;99.90;;;;;;4919884;29;20392;-82
2022/11/29 12:18:17;;;;;;;134.93;42.03;;;9.70;99.90;;;;;;4919289;29;20391;-82
2022/11/29 12:20:57;;;;;;;121.13;41.05;;;9.70;99.90;;;;;;4933224;28;20452;-82
2022/11/29 12:23:26;;;;;;;152.88;43.03;;;9.60;99.90;;;;;;4898784;29;20031;-81
2022/11/29 12:25:56;;;;;;;147.23;42.10;;;9.60;99.90;;;;;;4920399;29;20496;-82
2022/11/29 12:28:26;;;;;;;135.77;41.35;;;9.60;99.90;;;;;;4914764;29;20048;-81
2022/11/29 12:31:02;;;;;;;128.50;39.78;;;9.60;99.90;;;;;;4940612;29;20046;-82
2022/11/29 12:33:43;;;;;;;129.65;41.55;;;9.60;99.90;;;;;;4936287;29;20040;-82
2022/11/29 12:36:23;;;;;;;117.05;38.85;;;9.60;99.90;;;;;;4949194;28;20058;-82
2022/11/29 12:38:58;;;;;;;141.90;43.85;;;9.50;99.90;;;;;;4932323;29;20066;-82
2022/11/29 12:41:28;;;;;;;90.75;29.42;;;9.50;99.90;;;;;;4948910;28;20444;-82
2022/11/29 12:44:04;;;;;;;150.38;42.50;;;9.60;99.90;;;;;;4912616;29;20023;-82
2022/11/29 12:46:29;;;;;;;151.35;44.63;;;9.50;99.90;;;;;;4948847;28;20042;-82
2022/11/29 12:49:05;;;;;;;133.93;40.30;;;9.40;99.90;;;;;;4935164;29;20111;-82
2022/11/29 12:51:30;;;;;;;157.82;46.85;;;9.40;99.90;;;;;;4917536;29;20111;-82
2022/11/29 12:54:31;;;;;;;158.27;45.78;;;9.40;99.90;;;;;;4932666;28;20429;-82
2022/11/29 12:57:14;;;;;;;171.32;46.22;;;9.40;99.90;;;;;;4933453;29;20055;-82
2022/11/29 13:00:04;;;;;;;145.65;43.08;;;9.40;99.90;;;;;;4951301;28;20548;-82
2022/11/29 13:02:46;;;;;;;130.45;39.92;;;9.40;99.90;;;;;;4950049;28;20103;-82
2022/11/29 13:05:32;;;;;;;117.80;38.38;;;9.40;99.90;;;;;;4933594;28;20039;-82
2022/11/29 13:08:30;;;;;;;158.23;46.22;;;9.40;99.90;;;;;;4903284;29;20045;-82
2022/11/29 13:11:18;;;;;;;144.90;43.63;;;9.30;99.90;;;;;;4932824;29;20035;-82
2022/11/29 13:13:51;;;;;;;115.68;37.30;;;9.30;99.90;;;;;;4946995;28;20499;-82
2022/11/29 13:16:38;;;;;;;156.13;43.08;;;9.40;99.90;;;;;;4948131;28;20114;-82
2022/11/29 13:19:14;;;;;;;163.48;46.97;;;9.30;99.90;;;;;;4951766;28;20127;-82
2022/11/29 13:22:05;;;;;;;162.13;45.90;;;9.30;99.90;;;;;;4934411;29;20448;-82